createdAt,value
2019-01-15T00:00:25.472Z,1009.10
2019-01-15T00:01:25.453Z,1009.23
2019-01-15T00:02:25.433Z,1009.11
2019-01-15T00:03:25.442Z,1009.17
2019-01-15T00:04:25.405Z,1009.11
2019-01-15T00:05:25.405Z,1009.31
2019-01-15T00:06:25.384Z,1009.23
2019-01-15T00:07:25.378Z,1009.28
2019-01-15T00:08:25.388Z,1009.25
2019-01-15T00:09:25.447Z,1009.25
2019-01-15T00:10:25.348Z,1009.23
2019-01-15T00:11:25.347Z,1009.21
2019-01-15T00:12:25.338Z,1009.34
2019-01-15T00:13:25.310Z,1009.35
2019-01-15T00:14:25.311Z,1009.31
2019-01-15T00:15:25.315Z,1009.30
2019-01-15T00:16:25.281Z,1009.32
2019-01-15T00:17:25.267Z,1009.19
2019-01-15T00:18:25.260Z,1009.21
2019-01-15T00:19:25.256Z,1009.23
2019-01-15T00:20:25.268Z,1009.22
2019-01-15T00:21:25.226Z,1009.27
2019-01-15T00:22:25.222Z,1009.13
2019-01-15T00:23:25.211Z,1009.16
2019-01-15T00:24:25.215Z,1009.12
2019-01-15T00:25:25.204Z,1009.16
2019-01-15T00:26:25.173Z,1009.10
2019-01-15T00:27:25.166Z,1009.13
2019-01-15T00:28:25.150Z,1009.18
2019-01-15T00:29:25.151Z,1009.07
2019-01-15T00:30:25.145Z,1009.25
2019-01-15T00:31:25.121Z,1009.11
2019-01-15T00:32:25.112Z,1009.20
2019-01-15T00:33:25.104Z,1009.10
2019-01-15T00:34:25.086Z,1009.12
2019-01-15T00:35:25.109Z,1009.19
2019-01-15T00:36:25.077Z,1009.13
2019-01-15T00:37:25.060Z,1009.09
2019-01-15T00:38:25.051Z,1009.19
2019-01-15T00:39:25.035Z,1009.24
2019-01-15T00:40:25.023Z,1009.24
2019-01-15T00:41:25.034Z,1009.35
2019-01-15T00:42:25.005Z,1009.29
2019-01-15T00:43:24.998Z,1009.44
2019-01-15T00:44:25.005Z,1009.28
2019-01-15T00:45:24.975Z,1009.29
2019-01-15T00:46:24.990Z,1009.30
2019-01-15T00:47:24.951Z,1009.22
2019-01-15T00:48:24.953Z,1009.21
2019-01-15T00:49:24.941Z,1009.33
2019-01-15T00:50:24.938Z,1009.29
2019-01-15T00:51:24.907Z,1009.37
2019-01-15T00:52:24.918Z,1009.31
2019-01-15T00:53:24.935Z,1009.29
2019-01-15T00:54:24.893Z,1009.35
2019-01-15T00:55:24.868Z,1009.26
2019-01-15T00:56:24.858Z,1009.39
2019-01-15T00:57:24.866Z,1009.29
2019-01-15T00:58:24.851Z,1009.37
2019-01-15T00:59:24.830Z,1009.48
2019-01-15T01:00:24.816Z,1009.37
2019-01-15T01:01:24.797Z,1009.32
2019-01-15T01:02:24.791Z,1009.41
2019-01-15T01:03:24.796Z,1009.35
2019-01-15T01:04:24.766Z,1009.36
2019-01-15T01:05:24.752Z,1009.38
2019-01-15T01:06:24.750Z,1009.46
2019-01-15T01:07:24.745Z,1009.39
2019-01-15T01:08:24.761Z,1009.37
2019-01-15T01:09:24.714Z,1009.42
2019-01-15T01:10:24.713Z,1009.42
2019-01-15T01:11:24.700Z,1009.38
2019-01-15T01:12:24.684Z,1009.38
2019-01-15T01:13:24.672Z,1009.43
2019-01-15T01:14:24.684Z,1009.29
2019-01-15T01:15:24.657Z,1009.33
2019-01-15T01:16:24.636Z,1009.46
2019-01-15T01:17:24.643Z,1009.34
2019-01-15T01:18:24.699Z,1009.42
2019-01-15T01:19:24.608Z,1009.39
2019-01-15T01:20:24.625Z,1009.37
2019-01-15T01:21:24.584Z,1009.39
2019-01-15T01:22:24.575Z,1009.33
2019-01-15T01:23:24.566Z,1009.29
2019-01-15T01:24:24.605Z,1009.47
2019-01-15T01:25:24.565Z,1009.44
2019-01-15T01:26:24.536Z,1009.40
2019-01-15T01:27:24.526Z,1009.32
2019-01-15T01:28:24.519Z,1009.45
2019-01-15T01:29:24.532Z,1009.42
2019-01-15T01:30:24.486Z,1009.36
2019-01-15T01:31:24.504Z,1009.34
2019-01-15T01:32:24.471Z,1009.41
2019-01-15T01:33:24.459Z,1009.43
2019-01-15T01:34:24.451Z,1009.28
2019-01-15T01:35:24.469Z,1009.32
2019-01-15T01:36:24.424Z,1009.41
2019-01-15T01:37:24.432Z,1009.33
2019-01-15T01:38:24.401Z,1009.28
2019-01-15T01:39:24.401Z,1009.29
2019-01-15T01:40:24.389Z,1009.39
2019-01-15T01:41:24.386Z,1009.28
2019-01-15T01:42:29.432Z,1009.27
2019-01-15T01:43:25.349Z,1009.21
2019-01-15T01:44:24.346Z,1009.22
2019-01-15T01:45:24.329Z,1009.24
2019-01-15T01:46:24.322Z,1009.38
2019-01-15T01:47:24.311Z,1009.24
2019-01-15T01:48:24.319Z,1009.36
2019-01-15T01:49:24.292Z,1009.19
2019-01-15T01:50:24.272Z,1009.28
2019-01-15T01:51:24.270Z,1009.25
2019-01-15T01:52:24.259Z,1009.27
2019-01-15T01:53:24.272Z,1009.37
2019-01-15T01:54:24.245Z,1009.22
2019-01-15T01:55:24.225Z,1009.19
2019-01-15T01:56:24.211Z,1009.30
2019-01-15T01:57:24.203Z,1009.29
2019-01-15T01:58:24.215Z,1009.21
2019-01-15T01:59:24.179Z,1009.23
2019-01-15T02:00:24.167Z,1009.21
2019-01-15T02:01:24.172Z,1009.16
2019-01-15T02:02:24.144Z,1009.38
2019-01-15T02:03:24.153Z,1009.16
2019-01-15T02:04:24.135Z,1009.20
2019-01-15T02:05:24.111Z,1009.16
2019-01-15T02:06:24.964Z,1009.19
2019-01-15T02:07:24.094Z,1009.07
2019-01-15T02:08:24.102Z,1009.17
2019-01-15T02:09:24.087Z,1009.21
2019-01-15T02:10:24.065Z,1009.10
2019-01-15T02:11:24.050Z,1009.09
2019-01-15T02:12:24.060Z,1009.19
2019-01-15T02:13:24.058Z,1009.08
2019-01-15T02:14:24.021Z,1009.11
2019-01-15T02:15:24.013Z,1009.11
2019-01-15T02:16:24.001Z,1009.13
2019-01-15T02:17:23.993Z,1009.04
2019-01-15T02:18:24.001Z,1009.15
2019-01-15T02:19:23.977Z,1009.14
2019-01-15T02:20:23.955Z,1009.17
2019-01-15T02:21:23.942Z,1009.12
2019-01-15T02:22:23.932Z,1009.15
2019-01-15T02:23:23.939Z,1009.04
2019-01-15T02:24:23.912Z,1009.10
2019-01-15T02:25:23.900Z,1009.06
2019-01-15T02:26:23.899Z,1009.05
2019-01-15T02:27:23.906Z,1009.10
2019-01-15T02:28:23.900Z,1009.12
2019-01-15T02:29:23.865Z,1009.06
2019-01-15T02:30:23.866Z,1009.04
2019-01-15T02:31:23.838Z,1009.10
2019-01-15T02:32:23.843Z,1009.00
2019-01-15T02:33:23.846Z,1009.13
2019-01-15T02:34:23.811Z,1008.99
2019-01-15T02:35:23.803Z,1008.92
2019-01-15T02:36:23.788Z,1008.90
2019-01-15T02:37:23.779Z,1009.09
2019-01-15T02:38:23.799Z,1009.06
2019-01-15T02:39:23.772Z,1008.93
2019-01-15T02:40:23.755Z,1008.96
2019-01-15T02:41:23.741Z,1009.01
2019-01-15T02:42:23.720Z,1008.96
2019-01-15T02:43:23.710Z,1008.98
2019-01-15T02:44:23.723Z,1009.02
2019-01-15T02:45:23.693Z,1008.98
2019-01-15T02:46:23.686Z,1009.02
2019-01-15T02:47:23.695Z,1009.00
2019-01-15T02:48:23.675Z,1008.97
2019-01-15T02:49:23.668Z,1008.85
2019-01-15T02:50:23.655Z,1008.98
2019-01-15T02:51:23.626Z,1008.89
2019-01-15T02:52:23.614Z,1008.99
2019-01-15T02:53:23.616Z,1008.93
2019-01-15T02:54:23.603Z,1008.86
2019-01-15T02:55:23.620Z,1008.91
2019-01-15T02:56:23.581Z,1008.99
2019-01-15T02:57:23.557Z,1008.86
2019-01-15T02:58:23.559Z,1008.88
2019-01-15T02:59:23.545Z,1008.96
2019-01-15T03:00:23.535Z,1009.00
2019-01-15T03:01:23.558Z,1008.89
2019-01-15T03:02:23.521Z,1008.93
2019-01-15T03:03:23.500Z,1008.92
2019-01-15T03:04:23.499Z,1008.90
2019-01-15T03:05:23.479Z,1008.89
2019-01-15T03:06:23.496Z,1008.93
2019-01-15T03:07:23.465Z,1008.91
2019-01-15T03:08:23.454Z,1008.96
2019-01-15T03:09:23.436Z,1009.03
2019-01-15T03:10:23.428Z,1008.92
2019-01-15T03:11:23.409Z,1008.97
2019-01-15T03:12:23.424Z,1008.96
2019-01-15T03:13:23.398Z,1008.95
2019-01-15T03:14:23.397Z,1008.96
2019-01-15T03:15:23.367Z,1009.00
2019-01-15T03:16:23.361Z,1009.02
2019-01-15T03:17:23.347Z,1009.11
2019-01-15T03:18:23.372Z,1008.91
2019-01-15T03:19:23.336Z,1009.05
2019-01-15T03:20:23.312Z,1008.95
2019-01-15T03:21:23.311Z,1008.99
2019-01-15T03:22:23.303Z,1008.95
2019-01-15T03:23:23.290Z,1008.98
2019-01-15T03:24:23.298Z,1008.90
2019-01-15T03:25:23.272Z,1008.94
2019-01-15T03:26:23.251Z,1009.02
2019-01-15T03:27:23.250Z,1008.98
2019-01-15T03:28:23.229Z,1009.03
2019-01-15T03:29:23.230Z,1009.16
2019-01-15T03:30:23.325Z,1009.07
2019-01-15T03:31:23.211Z,1008.98
2019-01-15T03:32:23.195Z,1009.19
2019-01-15T03:33:23.193Z,1009.07
2019-01-15T03:34:23.179Z,1009.00
2019-01-15T03:35:23.187Z,1009.02
2019-01-15T03:36:23.157Z,1008.96
2019-01-15T03:37:23.151Z,1008.97
2019-01-15T03:38:23.123Z,1008.84
2019-01-15T03:39:23.129Z,1008.89
2019-01-15T03:40:23.121Z,1008.64
2019-01-15T03:41:23.128Z,1008.73
2019-01-15T03:42:23.094Z,1008.78
2019-01-15T03:43:23.075Z,1008.62
2019-01-15T03:44:23.067Z,1008.68
2019-01-15T03:45:23.064Z,1008.60
2019-01-15T03:46:23.044Z,1008.62
2019-01-15T03:47:23.053Z,1008.55
2019-01-15T03:48:23.014Z,1008.54
2019-01-15T03:49:23.014Z,1008.48
2019-01-15T03:50:22.993Z,1008.44
2019-01-15T03:51:22.985Z,1008.45
2019-01-15T03:52:23.002Z,1008.57
2019-01-15T03:53:22.966Z,1008.52
2019-01-15T03:54:22.961Z,1008.46
2019-01-15T03:55:22.957Z,1008.56
2019-01-15T03:56:22.937Z,1008.55
2019-01-15T03:57:22.943Z,1008.80
2019-01-15T03:58:22.944Z,1008.50
2019-01-15T03:59:22.901Z,1008.55
2019-01-15T04:00:22.908Z,1008.66
2019-01-15T04:01:22.880Z,1008.46
2019-01-15T04:02:22.869Z,1008.51
2019-01-15T04:03:22.886Z,1008.61
2019-01-15T04:04:22.844Z,1008.60
2019-01-15T04:05:22.838Z,1008.35
2019-01-15T04:06:22.865Z,1008.64
2019-01-15T04:07:22.817Z,1008.34
2019-01-15T04:08:22.812Z,1008.46
2019-01-15T04:09:22.830Z,1008.40
2019-01-15T04:10:22.782Z,1008.37
2019-01-15T04:11:22.775Z,1008.28
2019-01-15T04:12:22.760Z,1008.45
2019-01-15T04:13:22.757Z,1008.48
2019-01-15T04:14:22.740Z,1008.52
2019-01-15T04:15:22.760Z,1008.40
2019-01-15T04:16:22.732Z,1008.36
2019-01-15T04:17:22.712Z,1008.37
2019-01-15T04:18:22.701Z,1008.70
2019-01-15T04:19:22.691Z,1008.47
2019-01-15T04:20:22.698Z,1008.46
2019-01-15T04:21:22.669Z,1008.29
2019-01-15T04:22:22.651Z,1008.21
2019-01-15T04:23:22.765Z,1008.29
2019-01-15T04:24:22.628Z,1008.39
2019-01-15T04:25:22.617Z,1008.39
2019-01-15T04:26:22.641Z,1008.31
2019-01-15T04:27:22.606Z,1008.21
2019-01-15T04:28:22.645Z,1008.22
2019-01-15T04:29:22.613Z,1008.44
2019-01-15T04:30:22.574Z,1008.33
2019-01-15T04:31:22.607Z,1008.31
2019-01-15T04:32:22.573Z,1008.14
2019-01-15T04:33:22.550Z,1008.48
2019-01-15T04:34:22.520Z,1008.31
2019-01-15T04:35:22.569Z,1008.39
2019-01-15T04:36:22.499Z,1008.17
2019-01-15T04:37:22.487Z,1008.17
2019-01-15T04:38:22.498Z,1008.19
2019-01-15T04:39:22.485Z,1008.19
2019-01-15T04:40:22.481Z,1008.09
2019-01-15T04:41:22.468Z,1008.30
2019-01-15T04:42:22.445Z,1008.15
2019-01-15T04:43:22.462Z,1008.15
2019-01-15T04:44:22.414Z,1008.00
2019-01-15T04:45:22.411Z,1008.03
2019-01-15T04:46:22.408Z,1008.08
2019-01-15T04:47:22.392Z,1008.10
2019-01-15T04:48:22.378Z,1008.04
2019-01-15T04:49:22.385Z,1008.01
2019-01-15T04:50:22.372Z,1008.03
2019-01-15T04:51:22.345Z,1007.93
2019-01-15T04:52:22.364Z,1008.10
2019-01-15T04:53:22.326Z,1007.88
2019-01-15T04:54:22.349Z,1007.98
2019-01-15T04:55:22.304Z,1007.88
2019-01-15T04:56:22.297Z,1007.92
2019-01-15T04:57:22.278Z,1008.33
2019-01-15T04:58:22.287Z,1007.91
2019-01-15T04:59:22.278Z,1008.21
2019-01-15T05:00:22.272Z,1008.15
2019-01-15T05:01:22.236Z,1008.04
2019-01-15T05:02:22.228Z,1008.11
2019-01-15T05:03:22.222Z,1007.95
2019-01-15T05:04:22.226Z,1007.86
2019-01-15T05:05:22.198Z,1008.17
2019-01-15T05:06:22.207Z,1007.98
2019-01-15T05:07:22.170Z,1007.77
2019-01-15T05:08:22.168Z,1007.87
2019-01-15T05:09:22.163Z,1007.88
2019-01-15T05:10:22.171Z,1008.03
2019-01-15T05:11:22.126Z,1007.78
2019-01-15T05:12:22.136Z,1007.79
2019-01-15T05:13:27.367Z,1008.26
2019-01-15T05:14:23.098Z,1007.93
2019-01-15T05:15:22.092Z,1008.19
2019-01-15T05:16:22.113Z,1007.95
2019-01-15T05:17:22.090Z,1007.77
2019-01-15T05:18:22.062Z,1008.10
2019-01-15T05:19:22.053Z,1007.79
2019-01-15T05:20:22.040Z,1007.83
2019-01-15T05:21:22.029Z,1007.79
2019-01-15T05:22:22.175Z,1007.84
2019-01-15T05:23:22.013Z,1007.79
2019-01-15T05:24:21.999Z,1007.83
2019-01-15T05:25:21.981Z,1007.62
2019-01-15T05:26:21.968Z,1007.76
2019-01-15T05:27:21.970Z,1007.78
2019-01-15T05:28:21.991Z,1008.12
2019-01-15T05:29:21.936Z,1007.92
2019-01-15T05:30:21.929Z,1007.80
2019-01-15T05:31:21.919Z,1007.71
2019-01-15T05:32:21.907Z,1007.81
2019-01-15T05:33:21.914Z,1007.68
2019-01-15T05:34:21.883Z,1007.62
2019-01-15T05:35:21.890Z,1007.64
2019-01-15T05:36:21.881Z,1007.65
2019-01-15T05:37:21.857Z,1007.64
2019-01-15T05:38:21.887Z,1007.83
2019-01-15T05:39:21.839Z,1007.66
2019-01-15T05:40:21.825Z,1007.56
2019-01-15T05:41:21.893Z,1007.80
2019-01-15T05:42:21.801Z,1007.62
2019-01-15T05:43:21.794Z,1007.67
2019-01-15T05:44:21.841Z,1007.62
2019-01-15T05:45:21.800Z,1007.83
2019-01-15T05:46:21.759Z,1007.62
2019-01-15T05:47:21.746Z,1007.82
2019-01-15T05:48:21.761Z,1007.56
2019-01-15T05:49:21.746Z,1007.58
2019-01-15T05:50:21.749Z,1007.64
2019-01-15T05:51:21.713Z,1007.67
2019-01-15T05:52:21.696Z,1007.74
2019-01-15T05:53:21.685Z,1007.61
2019-01-15T05:54:21.697Z,1007.60
2019-01-15T05:55:21.670Z,1007.80
2019-01-15T05:56:21.650Z,1007.75
2019-01-15T05:57:21.648Z,1007.67
2019-01-15T05:58:21.624Z,1007.73
2019-01-15T05:59:21.617Z,1007.83
2019-01-15T06:00:21.624Z,1007.76
2019-01-15T06:01:21.612Z,1007.65
2019-01-15T06:02:21.591Z,1007.71
2019-01-15T06:03:21.596Z,1007.73
2019-01-15T06:04:21.572Z,1007.74
2019-01-15T06:05:21.579Z,1007.66
2019-01-15T06:06:21.544Z,1007.70
2019-01-15T06:07:21.527Z,1007.66
2019-01-15T06:08:21.522Z,1007.90
2019-01-15T06:09:21.511Z,1007.57
2019-01-15T06:10:21.517Z,1007.59
2019-01-15T06:11:21.494Z,1007.61
2019-01-15T06:12:21.472Z,1007.69
2019-01-15T06:13:21.477Z,1007.57
2019-01-15T06:14:21.467Z,1007.81
2019-01-15T06:15:21.475Z,1007.58
2019-01-15T06:16:21.435Z,1007.59
2019-01-15T06:17:21.432Z,1007.65
2019-01-15T06:18:21.409Z,1007.65
2019-01-15T06:19:21.409Z,1007.65
2019-01-15T06:20:21.435Z,1007.59
2019-01-15T06:21:21.421Z,1007.56
2019-01-15T06:22:21.373Z,1007.61
2019-01-15T06:23:21.421Z,1007.53
2019-01-15T06:24:21.347Z,1007.46
2019-01-15T06:25:21.338Z,1007.53
2019-01-15T06:26:21.377Z,1007.52
2019-01-15T06:27:21.312Z,1007.44
2019-01-15T06:28:21.302Z,1007.36
2019-01-15T06:29:21.317Z,1007.69
2019-01-15T06:30:21.279Z,1007.46
2019-01-15T06:31:21.284Z,1007.36
2019-01-15T06:32:21.262Z,1007.44
2019-01-15T06:33:21.250Z,1007.41
2019-01-15T06:34:21.255Z,1007.52
2019-01-15T06:35:21.255Z,1007.39
2019-01-15T06:36:21.263Z,1007.47
2019-01-15T06:37:21.211Z,1007.40
2019-01-15T06:38:21.204Z,1007.43
2019-01-15T06:39:21.186Z,1007.43
2019-01-15T06:40:21.191Z,1007.41
2019-01-15T06:41:21.202Z,1007.39
2019-01-15T06:42:21.183Z,1007.44
2019-01-15T06:43:21.140Z,1007.49
2019-01-15T06:44:21.284Z,1007.43
2019-01-15T06:45:21.167Z,1007.47
2019-01-15T06:46:21.123Z,1007.41
2019-01-15T06:47:21.116Z,1007.38
2019-01-15T06:48:21.101Z,1007.51
2019-01-15T06:49:21.073Z,1007.45
2019-01-15T06:50:21.067Z,1007.42
2019-01-15T06:51:21.067Z,1007.49
2019-01-15T06:52:21.051Z,1007.42
2019-01-15T06:53:21.054Z,1007.46
2019-01-15T06:54:21.034Z,1007.30
2019-01-15T06:55:21.039Z,1007.37
2019-01-15T06:56:20.998Z,1007.37
2019-01-15T06:57:21.030Z,1007.41
2019-01-15T06:58:21.030Z,1007.40
2019-01-15T06:59:20.995Z,1007.43
2019-01-15T07:00:20.968Z,1007.38
2019-01-15T07:01:20.955Z,1007.50
2019-01-15T07:02:20.945Z,1007.47
2019-01-15T07:03:20.933Z,1007.44
2019-01-15T07:04:20.937Z,1007.47
2019-01-15T07:05:20.958Z,1007.40
2019-01-15T07:06:20.940Z,1007.42
2019-01-15T07:07:20.877Z,1007.46
2019-01-15T07:08:20.954Z,1007.42
2019-01-15T07:09:20.862Z,1007.46
2019-01-15T07:10:20.866Z,1007.43
2019-01-15T07:11:20.838Z,1007.39
2019-01-15T07:12:20.853Z,1007.42
2019-01-15T07:13:20.885Z,1007.41
2019-01-15T07:14:20.808Z,1007.41
2019-01-15T07:15:20.824Z,1007.45
2019-01-15T07:16:20.780Z,1007.31
2019-01-15T07:17:20.785Z,1007.44
2019-01-15T07:18:20.759Z,1007.60
2019-01-15T07:19:20.752Z,1007.36
2019-01-15T07:20:20.769Z,1007.38
2019-01-15T07:21:20.758Z,1007.59
2019-01-15T07:22:20.730Z,1007.51
2019-01-15T07:23:20.761Z,1007.40
2019-01-15T07:24:20.736Z,1007.69
2019-01-15T07:25:20.691Z,1007.38
2019-01-15T07:26:20.758Z,1007.39
2019-01-15T07:27:20.670Z,1007.36
2019-01-15T07:28:20.661Z,1007.28
2019-01-15T07:29:20.649Z,1007.33
2019-01-15T07:30:20.638Z,1007.46
2019-01-15T07:31:20.636Z,1007.37
2019-01-15T07:32:20.646Z,1007.51
2019-01-15T07:33:20.616Z,1007.50
2019-01-15T07:34:20.595Z,1007.42
2019-01-15T07:35:20.599Z,1007.45
2019-01-15T07:36:20.575Z,1007.37
2019-01-15T07:37:20.590Z,1007.47
2019-01-15T07:38:20.553Z,1007.44
2019-01-15T07:39:20.554Z,1007.39
2019-01-15T07:40:20.534Z,1007.46
2019-01-15T07:41:20.532Z,1007.47
2019-01-15T07:42:20.513Z,1007.46
2019-01-15T07:43:20.556Z,1007.45
2019-01-15T07:44:20.509Z,1007.53
2019-01-15T07:45:20.486Z,1007.44
2019-01-15T07:46:20.531Z,1007.40
2019-01-15T07:47:20.449Z,1007.39
2019-01-15T07:48:20.473Z,1007.51
2019-01-15T07:49:20.430Z,1007.55
2019-01-15T07:50:20.439Z,1007.53
2019-01-15T07:51:20.412Z,1007.56
2019-01-15T07:52:21.594Z,1007.40
2019-01-15T07:53:20.425Z,1007.37
2019-01-15T07:54:20.417Z,1007.35
2019-01-15T07:55:20.373Z,1007.34
2019-01-15T07:56:20.378Z,1007.39
2019-01-15T07:57:20.368Z,1007.38
2019-01-15T07:58:20.335Z,1007.46
2019-01-15T07:59:20.361Z,1007.44
2019-01-15T08:00:20.309Z,1007.39
2019-01-15T08:01:20.330Z,1007.42
2019-01-15T08:02:20.293Z,1007.51
2019-01-15T08:03:20.323Z,1007.44
2019-01-15T08:04:20.322Z,1007.58
2019-01-15T08:05:20.334Z,1007.52
2019-01-15T08:06:20.247Z,1007.38
2019-01-15T08:07:20.241Z,1007.43
2019-01-15T08:08:20.252Z,1007.58
2019-01-15T08:09:20.244Z,1007.41
2019-01-15T08:10:20.242Z,1007.49
2019-01-15T08:11:20.221Z,1007.52
2019-01-15T08:12:20.197Z,1007.43
2019-01-15T08:13:20.220Z,1007.38
2019-01-15T08:14:20.192Z,1007.42
2019-01-15T08:15:20.180Z,1007.48
2019-01-15T08:16:20.163Z,1007.52
2019-01-15T08:17:20.147Z,1007.44
2019-01-15T08:18:20.153Z,1007.51
2019-01-15T08:19:20.112Z,1007.44
2019-01-15T08:20:20.124Z,1007.43
2019-01-15T08:21:20.129Z,1007.60
2019-01-15T08:22:20.080Z,1007.63
2019-01-15T08:23:20.075Z,1007.45
2019-01-15T08:24:20.063Z,1007.40
2019-01-15T08:25:20.104Z,1007.52
2019-01-15T08:26:20.071Z,1007.43
2019-01-15T08:27:20.025Z,1007.44
2019-01-15T08:28:20.037Z,1007.55
2019-01-15T08:29:20.010Z,1007.36
2019-01-15T08:30:20.012Z,1007.40
2019-01-15T08:31:20.004Z,1007.34
2019-01-15T08:32:19.982Z,1007.41
2019-01-15T08:33:19.980Z,1007.49
2019-01-15T08:34:19.956Z,1007.45
2019-01-15T08:35:19.968Z,1007.39
2019-01-15T08:36:19.965Z,1007.43
2019-01-15T08:37:19.988Z,1007.38
2019-01-15T08:38:19.991Z,1007.38
2019-01-15T08:39:19.907Z,1007.35
2019-01-15T08:40:19.899Z,1007.53
2019-01-15T08:41:19.894Z,1007.38
2019-01-15T08:42:19.901Z,1007.41
2019-01-15T08:43:19.858Z,1007.30
2019-01-15T08:44:19.861Z,1007.43
2019-01-15T08:45:19.889Z,1007.23
2019-01-15T08:46:19.841Z,1007.25
2019-01-15T08:47:19.836Z,1007.23
2019-01-15T08:48:19.809Z,1007.46
2019-01-15T08:49:19.791Z,1007.27
2019-01-15T08:50:19.802Z,1007.20
2019-01-15T08:51:19.780Z,1007.26
2019-01-15T08:52:19.794Z,1007.20
2019-01-15T08:53:19.812Z,1007.19
2019-01-15T08:54:19.747Z,1007.26
2019-01-15T08:55:19.782Z,1007.17
2019-01-15T08:56:19.781Z,1007.13
2019-01-15T08:57:19.731Z,1007.14
2019-01-15T08:58:19.702Z,1007.17
2019-01-15T08:59:19.700Z,1007.20
2019-01-15T09:00:19.697Z,1007.13
2019-01-15T09:01:19.668Z,1007.15
2019-01-15T09:02:19.696Z,1007.15
2019-01-15T09:03:19.644Z,1007.28
2019-01-15T09:04:19.667Z,1007.17
2019-01-15T09:05:19.631Z,1007.27
2019-01-15T09:06:19.627Z,1007.28
2019-01-15T09:07:19.677Z,1007.06
2019-01-15T09:08:19.599Z,1007.26
2019-01-15T09:09:19.586Z,1007.20
2019-01-15T09:10:19.579Z,1007.20
2019-01-15T09:11:19.573Z,1007.12
2019-01-15T09:12:19.552Z,1007.20
2019-01-15T09:13:19.602Z,1007.25
2019-01-15T09:14:26.563Z,1007.16
2019-01-15T09:15:20.531Z,1007.27
2019-01-15T09:16:19.517Z,1007.40
2019-01-15T09:17:19.506Z,1007.29
2019-01-15T09:18:19.520Z,1007.17
2019-01-15T09:19:19.476Z,1007.17
2019-01-15T09:20:19.487Z,1007.31
2019-01-15T09:21:19.460Z,1007.31
2019-01-15T09:22:19.450Z,1007.17
2019-01-15T09:23:19.443Z,1007.18
2019-01-15T09:24:19.488Z,1007.19
2019-01-15T09:25:19.414Z,1007.12
2019-01-15T09:26:19.432Z,1007.10
2019-01-15T09:27:19.393Z,1007.11
2019-01-15T09:28:19.392Z,1007.17
2019-01-15T09:29:19.404Z,1007.06
2019-01-15T09:30:19.368Z,1007.09
2019-01-15T09:31:19.355Z,1007.07
2019-01-15T09:32:19.348Z,1007.08
2019-01-15T09:33:19.358Z,1007.06
2019-01-15T09:34:19.326Z,1007.20
2019-01-15T09:35:19.342Z,1007.30
2019-01-15T09:36:19.305Z,1007.05
2019-01-15T09:37:19.303Z,1007.03
2019-01-15T09:38:19.283Z,1007.18
2019-01-15T09:39:19.294Z,1007.02
2019-01-15T09:40:19.286Z,1007.08
2019-01-15T09:41:19.267Z,1007.05
2019-01-15T09:42:19.693Z,1007.06
2019-01-15T09:43:19.340Z,1007.27
2019-01-15T09:44:19.594Z,1007.04
2019-01-15T09:45:19.206Z,1007.07
2019-01-15T09:46:19.243Z,1007.06
2019-01-15T09:47:19.187Z,1007.04
2019-01-15T09:48:19.175Z,1006.99
2019-01-15T09:49:19.165Z,1007.03
2019-01-15T09:50:19.698Z,1007.01
2019-01-15T09:51:19.295Z,1006.95
2019-01-15T09:52:20.456Z,1007.11
2019-01-15T09:53:19.140Z,1006.95
2019-01-15T09:54:19.115Z,1006.97
2019-01-15T09:55:19.096Z,1006.95
2019-01-15T09:56:19.123Z,1007.04
2019-01-15T09:57:19.118Z,1006.93
2019-01-15T09:58:19.068Z,1007.02
2019-01-15T09:59:19.056Z,1006.95
2019-01-15T10:00:19.045Z,1006.93
2019-01-15T10:01:19.044Z,1006.94
2019-01-15T10:02:19.057Z,1007.02
2019-01-15T10:03:19.135Z,1006.96
2019-01-15T10:04:19.019Z,1006.94
2019-01-15T10:05:18.999Z,1006.84
2019-01-15T10:06:18.982Z,1006.93
2019-01-15T10:07:18.975Z,1006.78
2019-01-15T10:08:18.962Z,1006.80
2019-01-15T10:09:18.990Z,1006.89
2019-01-15T10:10:18.944Z,1006.77
2019-01-15T10:11:18.939Z,1006.92
2019-01-15T10:12:18.921Z,1006.77
2019-01-15T10:13:18.917Z,1006.82
2019-01-15T10:14:18.929Z,1006.77
2019-01-15T10:15:18.897Z,1006.76
2019-01-15T10:16:18.895Z,1006.74
2019-01-15T10:17:18.882Z,1006.74
2019-01-15T10:18:18.856Z,1006.75
2019-01-15T10:19:18.874Z,1006.69
2019-01-15T10:20:18.846Z,1006.82
2019-01-15T10:21:18.829Z,1006.61
2019-01-15T10:22:18.832Z,1006.61
2019-01-15T10:23:18.845Z,1006.55
2019-01-15T10:24:18.821Z,1006.58
2019-01-15T10:25:18.796Z,1006.56
2019-01-15T10:26:18.782Z,1006.57
2019-01-15T10:27:18.762Z,1006.44
2019-01-15T10:28:18.816Z,1006.56
2019-01-15T10:29:18.777Z,1006.47
2019-01-15T10:30:18.756Z,1006.53
2019-01-15T10:31:18.732Z,1006.50
2019-01-15T10:32:18.715Z,1006.50
2019-01-15T10:33:18.700Z,1006.46
2019-01-15T10:34:18.708Z,1006.41
2019-01-15T10:35:18.699Z,1006.40
2019-01-15T10:36:18.674Z,1006.45
2019-01-15T10:37:18.677Z,1006.39
2019-01-15T10:38:19.209Z,1006.48
2019-01-15T10:39:18.688Z,1006.40
2019-01-15T10:40:18.728Z,1006.40
2019-01-15T10:41:18.632Z,1006.37
2019-01-15T10:42:18.646Z,1006.31
2019-01-15T10:43:18.602Z,1006.44
2019-01-15T10:44:18.595Z,1006.47
2019-01-15T10:45:18.592Z,1006.32
2019-01-15T10:46:21.354Z,1006.34
2019-01-15T10:47:18.565Z,1006.26
2019-01-15T10:48:18.705Z,1006.56
2019-01-15T10:49:18.541Z,1006.25
2019-01-15T10:50:18.680Z,1006.28
2019-01-15T10:51:18.648Z,1006.25
2019-01-15T10:52:18.595Z,1006.21
2019-01-15T10:53:18.505Z,1006.23
2019-01-15T10:54:18.491Z,1006.14
2019-01-15T10:55:18.494Z,1006.08
2019-01-15T10:56:18.561Z,1006.05
2019-01-15T10:57:18.458Z,1006.07
2019-01-15T10:58:18.449Z,1006.04
2019-01-15T10:59:18.433Z,1006.14
2019-01-15T11:00:18.445Z,1006.15
2019-01-15T11:01:18.427Z,1006.14
2019-01-15T11:02:18.411Z,1006.09
2019-01-15T11:03:18.391Z,1006.01
2019-01-15T11:04:18.395Z,1005.97
2019-01-15T11:05:18.376Z,1005.88
2019-01-15T11:06:18.386Z,1005.81
2019-01-15T11:07:18.358Z,1005.96
2019-01-15T11:08:18.339Z,1005.89
2019-01-15T11:09:18.329Z,1005.78
2019-01-15T11:10:18.328Z,1005.79
2019-01-15T11:11:18.313Z,1005.84
2019-01-15T11:12:18.323Z,1005.70
2019-01-15T11:13:18.309Z,1005.82
2019-01-15T11:14:18.315Z,1005.77
2019-01-15T11:15:18.274Z,1005.69
2019-01-15T11:16:18.265Z,1005.70
2019-01-15T11:17:18.370Z,1005.81
2019-01-15T11:18:18.242Z,1005.83
2019-01-15T11:19:18.229Z,1005.72
2019-01-15T11:20:18.221Z,1005.74
2019-01-15T11:21:18.261Z,1005.69
2019-01-15T11:22:18.226Z,1005.70
2019-01-15T11:23:18.189Z,1005.70
2019-01-15T11:24:18.206Z,1005.83
2019-01-15T11:25:18.168Z,1005.79
2019-01-15T11:26:18.171Z,1005.76
2019-01-15T11:27:18.146Z,1005.67
2019-01-15T11:28:18.163Z,1005.48
2019-01-15T11:29:18.127Z,1005.95
2019-01-15T11:30:18.127Z,1005.94
2019-01-15T11:31:18.101Z,1005.64
2019-01-15T11:32:18.110Z,1005.47
2019-01-15T11:33:18.082Z,1005.95
2019-01-15T11:34:18.089Z,1005.57
2019-01-15T11:35:18.064Z,1005.58
2019-01-15T11:36:18.094Z,1005.39
2019-01-15T11:37:18.047Z,1005.47
2019-01-15T11:38:18.030Z,1005.58
2019-01-15T11:39:18.066Z,1005.45
2019-01-15T11:40:18.007Z,1005.60
2019-01-15T11:41:18.006Z,1005.42
2019-01-15T11:42:17.990Z,1005.46
2019-01-15T11:43:17.988Z,1005.74
2019-01-15T11:44:18.005Z,1005.38
2019-01-15T11:45:18.023Z,1005.61
2019-01-15T11:46:17.970Z,1005.47
2019-01-15T11:47:17.956Z,1005.37
2019-01-15T11:48:17.991Z,1005.25
2019-01-15T11:49:17.954Z,1005.49
2019-01-15T11:50:17.965Z,1005.60
2019-01-15T11:51:17.920Z,1005.31
2019-01-15T11:52:17.880Z,1005.29
2019-01-15T11:53:17.907Z,1005.36
2019-01-15T11:54:17.888Z,1005.36
2019-01-15T11:55:17.918Z,1005.20
2019-01-15T11:56:17.866Z,1005.27
2019-01-15T11:57:17.875Z,1005.32
2019-01-15T11:58:17.822Z,1005.19
2019-01-15T11:59:17.818Z,1005.20
2019-01-15T12:00:17.807Z,1005.13
2019-01-15T12:01:17.821Z,1005.07
2019-01-15T12:02:22.212Z,1005.09
2019-01-15T12:03:17.764Z,1005.20
2019-01-15T12:04:17.754Z,1005.04
2019-01-15T12:05:17.747Z,1004.96